Terminal Aerodrome Forecast
Issued by NWS Paducah, KY

Home | Current Version | Previous Version | Text Only | Print | Product List | Glossary On
Versions: 1 2 3 4 5 6 7 8 9 10 11 12 13 14 15
991
FTUS43 KPAH 131727
TAFPAH
TAF
KPAH 131727Z 1318/1418 04007KT P6SM OVC090
     FM140000 07006KT P6SM OVC070
     FM141200 11008KT P6SM SCT025 OVC050
     FM141500 13008KT 4SM -SHSN OVC025=

USA.gov is the U.S. government's official web portal to all federal, state and local government web resources and services.